Time;durP1;ratioP1;P1;durP2;ratioP2;P2;SDS_P1;SDS_P2;PMS_P1;PMS_P2;Temp;Humidity;BMP_temperature;BMP_pressure;BME280_temperature;BME280_humidity;BME280_pressure;Samples;Min_cycle;Max_cycle;Signal;HPM_P1;HPM_P2
2022/11/22 00:01:26;;;;;;;23.70;14.80;;;;;;;1.53;100.00;99487.97;4919542;29;20413;-78
2022/11/22 00:03:54;;;;;;;24.42;14.82;;;;;;;1.55;100.00;99482.78;4915175;29;20059;-80
2022/11/22 00:06:22;;;;;;;21.92;14.75;;;;;;;1.54;100.00;99487.13;4909993;29;20047;-79
2022/11/22 00:08:51;;;;;;;26.08;16.17;;;;;;;1.53;100.00;99479.28;4887463;29;20052;-80
2022/11/22 00:11:20;;;;;;;24.73;16.27;;;;;;;1.53;100.00;99461.13;4919275;29;20056;-79
2022/11/22 00:13:49;;;;;;;24.02;15.88;;;;;;;1.50;100.00;99467.16;4906713;29;20087;-79
2022/11/22 00:16:17;;;;;;;25.58;15.95;;;;;;;1.47;100.00;99454.09;4908555;29;20512;-79
2022/11/22 00:18:45;;;;;;;26.27;16.70;;;;;;;1.47;100.00;99442.84;4910907;29;20055;-78
2022/11/22 00:21:14;;;;;;;27.55;16.67;;;;;;;1.48;100.00;99442.00;4920701;29;20051;-80
2022/11/22 00:23:42;;;;;;;33.85;17.10;;;;;;;1.46;100.00;99428.13;4907059;29;20479;-79
2022/11/22 00:26:10;;;;;;;32.08;18.98;;;;;;;1.48;100.00;99423.84;4933965;28;20056;-78
2022/11/22 00:28:42;;;;;;;34.13;19.45;;;;;;;1.50;100.00;99419.53;4915182;29;20062;-79
2022/11/22 00:31:12;;;;;;;35.47;19.25;;;;;;;1.51;100.00;99429.97;4924481;29;20125;-78
2022/11/22 00:33:42;;;;;;;38.30;21.50;;;;;;;1.51;100.00;99422.19;4914210;29;20072;-80
2022/11/22 00:36:11;;;;;;;38.53;20.67;;;;;;;1.54;100.00;99414.41;4926168;29;20059;-78
2022/11/22 00:38:41;;;;;;;46.10;23.00;;;;;;;1.58;100.00;99420.53;4915370;29;20048;-79
2022/11/22 00:41:09;;;;;;;37.53;21.58;;;;;;;1.60;100.00;99410.19;4910972;29;20303;-79
2022/11/22 00:43:37;;;;;;;40.63;20.00;;;;;;;1.61;100.00;99414.50;4913235;29;20051;-79
2022/11/22 00:46:06;;;;;;;35.78;20.17;;;;;;;1.60;100.00;99395.47;4904229;29;20048;-79
2022/11/22 00:48:35;;;;;;;26.13;13.93;;;;;;;1.61;100.00;99409.31;4902942;29;20052;-79
2022/11/22 00:51:03;;;;;;;34.97;19.90;;;;;;;1.58;100.00;99393.72;4912221;29;20556;-79
2022/11/22 00:53:32;;;;;;;37.88;21.65;;;;;;;1.55;100.00;99390.22;4932937;29;20052;-79
2022/11/22 00:56:02;;;;;;;41.85;21.00;;;;;;;1.53;100.00;99397.13;4902967;29;20059;-79
2022/11/22 00:58:32;;;;;;;44.03;21.98;;;;;;;1.52;100.00;99397.94;4916431;29;20402;-79
2022/11/22 01:01:00;;;;;;;41.60;21.40;;;;;;;1.54;100.00;99392.78;4899409;29;20047;-79
2022/11/22 01:03:29;;;;;;;42.60;20.95;;;;;;;1.53;100.00;99397.13;4918166;29;20044;-79
2022/11/22 01:05:57;;;;;;;40.53;19.90;;;;;;;1.54;100.00;99385.84;4903151;29;20512;-79
2022/11/22 01:08:25;;;;;;;42.50;22.77;;;;;;;1.55;100.00;99384.13;4916939;29;20040;-78
2022/11/22 01:10:58;;;;;;;41.53;21.00;;;;;;;1.56;100.00;99378.09;4906467;29;20305;-79
2022/11/22 01:13:28;;;;;;;44.30;22.52;;;;;;;1.56;100.00;99376.38;4923115;29;20033;-79
2022/11/22 01:16:05;;;;;;;47.85;24.77;;;;;;;1.58;100.00;99372.94;4930036;28;20469;-80
2022/11/22 01:18:33;;;;;;;45.60;23.65;;;;;;;1.60;100.00;99376.44;4913704;29;20049;-79
2022/11/22 01:21:04;;;;;;;46.85;23.42;;;;;;;1.60;100.00;99381.63;4920610;29;20126;-79
2022/11/22 01:23:34;;;;;;;43.63;23.70;;;;;;;1.60;100.00;99376.44;4914991;29;20079;-80
2022/11/22 01:26:02;;;;;;;46.22;23.38;;;;;;;1.61;100.00;99372.97;4874590;29;20075;-79
2022/11/22 01:28:32;;;;;;;50.33;26.52;;;;;;;1.63;100.00;99373.88;4912443;29;20063;-78
2022/11/22 01:31:00;;;;;;;41.95;24.42;;;;;;;1.62;100.00;99370.41;4913053;29;20920;-80
2022/11/22 01:33:28;;;;;;;44.28;24.10;;;;;;;1.61;100.00;99370.38;4921985;29;20048;-78
2022/11/22 01:35:57;;;;;;;40.42;22.80;;;;;;;1.62;100.00;99367.81;4923348;29;20429;-78
2022/11/22 01:38:25;;;;;;;37.83;20.50;;;;;;;1.62;100.00;99378.19;4917766;29;20047;-78
2022/11/22 01:40:54;;;;;;;38.33;22.77;;;;;;;1.61;100.00;99373.88;4914629;29;20052;-79
2022/11/22 01:43:25;;;;;;;35.97;22.13;;;;;;;1.59;100.00;99372.97;4899491;29;20039;-79
2022/11/22 01:46:00;;;;;;;40.67;23.33;;;;;;;1.58;100.00;99365.16;4913860;29;20044;-79
2022/11/22 01:48:46;;;;;;;40.45;23.85;;;;;;;1.56;100.00;99371.19;4924125;29;20048;-78
2022/11/22 01:51:24;;;;;;;33.95;21.83;;;;;;;1.53;100.00;99360.75;4912165;29;20075;-80
2022/11/22 01:53:59;;;;;;;35.67;21.95;;;;;;;1.55;100.00;99368.53;4914738;29;20051;-79
2022/11/22 01:56:29;;;;;;;33.88;21.05;;;;;;;1.56;100.00;99359.94;4916226;29;20120;-79
2022/11/22 01:59:01;;;;;;;36.80;22.88;;;;;;;1.55;100.00;99360.75;4892480;29;20056;-79
2022/11/22 02:01:31;;;;;;;35.13;21.50;;;;;;;1.55;100.00;99363.34;4896301;29;20071;-79
2022/11/22 02:04:01;;;;;;;30.33;17.70;;;;;;;1.55;100.00;99360.75;4894237;29;20057;-79
2022/11/22 02:06:42;;;;;;;36.65;22.52;;;;;;;1.55;100.00;99358.16;4909530;29;20048;-79
2022/11/22 02:09:12;;;;;;;38.50;22.38;;;;;;;1.56;100.00;99360.78;4924564;29;20067;-80
2022/11/22 02:11:49;;;;;;;34.95;22.33;;;;;;;1.53;100.00;99360.75;4892325;29;20040;-79
2022/11/22 02:14:24;;;;;;;32.03;19.70;;;;;;;1.51;100.00;99357.28;4911444;29;20047;-79
2022/11/22 02:16:53;;;;;;;37.90;22.15;;;;;;;1.49;100.00;99353.78;4914857;29;20064;-79
2022/11/22 02:19:38;;;;;;;34.55;21.60;;;;;;;1.48;100.00;99338.19;4910175;29;20059;-79
2022/11/22 02:22:43;;;;;;;38.95;22.58;;;;;;;1.48;100.00;99333.84;4908495;29;20643;-80
2022/11/22 02:25:31;;;;;;;41.92;23.77;;;;;;;1.50;100.00;99342.53;4931065;29;20044;-78
2022/11/22 02:28:01;;;;;;;41.00;24.50;;;;;;;1.50;100.00;99341.66;4909986;29;20044;-79
2022/11/22 02:30:29;;;;;;;37.95;21.38;;;;;;;1.51;100.00;99341.69;4885174;29;20061;-79
2022/11/22 02:32:58;;;;;;;41.10;23.90;;;;;;;1.48;100.00;99326.06;4919185;29;20140;-78
2022/11/22 02:35:28;;;;;;;40.80;24.80;;;;;;;1.52;100.00;99329.56;4907604;29;20041;-78
2022/11/22 02:38:03;;;;;;;42.50;25.33;;;;;;;1.52;100.00;99332.19;4903717;29;20410;-79
2022/11/22 02:40:39;;;;;;;36.47;19.65;;;;;;;1.54;100.00;99317.50;4914010;29;20052;-78
2022/11/22 02:43:14;;;;;;;39.22;23.13;;;;;;;1.54;100.00;99315.75;4913530;29;20036;-78
2022/11/22 02:45:42;;;;;;;39.95;22.50;;;;;;;1.55;100.00;99322.72;4906653;29;20040;-78
2022/11/22 02:48:16;;;;;;;36.53;22.08;;;;;;;1.56;100.00;99324.44;4914595;29;20044;-80
2022/11/22 02:50:44;;;;;;;36.25;22.60;;;;;;;1.59;100.00;99322.75;4903514;29;20052;-79
2022/11/22 02:53:14;;;;;;;37.15;21.48;;;;;;;1.59;100.00;99317.53;4894087;29;20040;-79
2022/11/22 02:55:43;;;;;;;33.85;21.45;;;;;;;1.59;100.00;99326.22;4914249;29;20040;-79
2022/11/22 02:58:11;;;;;;;36.03;21.15;;;;;;;1.61;100.00;99314.13;4890668;29;20066;-78
2022/11/22 03:00:40;;;;;;;32.38;20.27;;;;;;;1.63;100.00;99316.75;4903108;29;20503;-78
2022/11/22 03:03:10;;;;;;;;;;;;;;;1.64;100.00;99316.75;4887073;29;20045;-79
2022/11/22 03:05:39;;;;;;;35.65;21.02;;;;;;;1.65;100.00;99309.88;4906087;29;20383;-78
2022/11/22 03:08:07;;;;;;;30.17;18.98;;;;;;;1.65;100.00;99308.13;4910779;29;20056;-79
2022/11/22 03:10:35;;;;;;;33.53;19.75;;;;;;;1.66;100.00;99301.22;4922694;29;20394;-79
2022/11/22 03:13:04;;;;;;;36.53;20.08;;;;;;;1.67;100.00;99301.25;4887806;29;20057;-79
2022/11/22 03:15:32;;;;;;;35.38;21.52;;;;;;;1.69;100.00;99309.06;4921888;29;20060;-79
2022/11/22 03:18:03;;;;;;;35.17;20.80;;;;;;;1.71;100.00;99312.53;4925125;28;20063;-80
2022/11/22 03:20:32;;;;;;;35.95;19.60;;;;;;;1.73;100.00;99321.22;4917560;29;20079;-79
2022/11/22 03:23:00;;;;;;;33.90;19.33;;;;;;;1.73;100.00;99322.09;4911392;29;20218;-79
2022/11/22 03:25:29;;;;;;;30.63;18.95;;;;;;;1.75;100.00;99320.38;4921160;29;20044;-79
2022/11/22 03:27:58;;;;;;;32.88;18.25;;;;;;;1.77;100.00;99317.81;4902397;29;20044;-79
2022/11/22 03:30:26;;;;;;;32.00;18.85;;;;;;;1.79;100.00;99308.31;4899254;29;20055;-79
2022/11/22 03:32:54;;;;;;;34.63;19.55;;;;;;;1.79;100.00;99300.53;4924817;29;20055;-79
2022/11/22 03:35:23;;;;;;;28.60;16.98;;;;;;;1.80;100.00;99299.69;4917880;29;20055;-79
2022/11/22 03:37:51;;;;;;;32.78;19.63;;;;;;;1.82;100.00;99302.31;4906089;29;20044;-78
2022/11/22 03:40:20;;;;;;;31.63;18.45;;;;;;;1.83;100.00;99310.09;4911055;29;20114;-79
2022/11/22 03:42:48;;;;;;;31.40;18.17;;;;;;;1.84;100.00;99306.66;4930391;29;20047;-78
2022/11/22 03:45:16;;;;;;;30.27;18.17;;;;;;;1.84;100.00;99306.66;4889969;29;20036;-78
2022/11/22 03:47:45;;;;;;;32.65;19.25;;;;;;;1.86;100.00;99304.09;4909258;29;20051;-78
2022/11/22 03:50:14;;;;;;;34.67;18.13;;;;;;;1.86;100.00;99299.75;4910638;29;20047;-79
2022/11/22 03:52:43;;;;;;;29.17;17.08;;;;;;;1.87;100.00;99303.22;4912473;29;20055;-78
2022/11/22 03:55:12;;;;;;;32.67;18.25;;;;;;;1.88;100.00;99307.59;4926942;29;20493;-78
2022/11/22 03:57:41;;;;;;;35.03;19.08;;;;;;;1.90;100.00;99309.34;4900835;29;20048;-79
2022/11/22 04:00:11;;;;;;;32.42;17.25;;;;;;;1.90;100.00;99317.13;4891009;29;20059;-79
2022/11/22 04:02:41;;;;;;;29.17;17.27;;;;;;;1.93;100.00;99319.78;4922294;29;20036;-79
2022/11/22 04:05:09;;;;;;;34.07;12.73;;;;;;;1.94;100.00;99305.94;4915755;29;20048;-79
2022/11/22 04:07:38;;;;;;;28.13;17.70;;;;;;;1.92;100.00;99305.03;4912275;29;20081;-79
2022/11/22 04:10:07;;;;;;;26.77;17.20;;;;;;;1.94;100.00;99311.13;4911129;29;20521;-79
2022/11/22 04:12:35;;;;;;;30.25;18.15;;;;;;;1.96;100.00;99318.94;4916103;29;20506;-78
2022/11/22 04:15:07;;;;;;;34.13;16.80;;;;;;;2.00;100.00;99317.25;4907890;29;21009;-79
2022/11/22 04:17:43;;;;;;;34.63;19.13;;;;;;;2.02;100.00;99320.75;4918153;29;20040;-79
2022/11/22 04:23:18;;;;;;;31.05;18.27;;;;;;;2.02;100.00;99315.56;4908046;29;20051;-80
2022/11/22 04:25:48;;;;;;;30.50;17.85;;;;;;;2.03;100.00;99319.91;4908977;29;20048;-79
2022/11/22 04:28:24;;;;;;;;;;;;;;;2.04;100.00;99313.84;4917506;29;20059;-79
2022/11/22 04:33:59;;;;;;;26.90;17.42;;;;;;;2.05;100.00;99318.19;4899192;29;20048;-80
2022/11/22 04:36:27;;;;;;;26.75;17.33;;;;;;;2.07;100.00;99326.88;4893514;29;20044;-78
2022/11/22 04:38:56;;;;;;;30.80;17.80;;;;;;;2.09;100.00;99325.19;4906468;29;20052;-79
2022/11/22 04:41:24;;;;;;;29.42;17.88;;;;;;;2.09;100.00;99314.78;4923797;29;20528;-79
2022/11/22 04:46:39;;;;;;;27.15;16.70;;;;;;;2.09;100.00;99309.59;4896429;29;20055;-79
2022/11/22 04:49:08;;;;;;;29.48;17.75;;;;;;;2.10;100.00;99306.16;4907326;29;20075;-80
2022/11/22 04:54:24;;;;;;;31.70;17.83;;;;;;;2.12;100.00;99314.84;4921412;29;20536;-80
2022/11/22 04:56:52;;;;;;;27.73;17.25;;;;;;;2.13;100.00;99319.16;4908799;29;20506;-79
2022/11/22 04:59:20;;;;;;;31.20;17.20;;;;;;;2.16;100.00;99321.81;4932206;29;20402;-79
2022/11/22 05:01:51;;;;;;;27.88;16.48;;;;;;;2.16;100.00;99327.00;4896571;29;20044;-79
2022/11/22 05:04:19;;;;;;;28.95;17.70;;;;;;;2.18;100.00;99335.69;4891168;29;20047;-79
2022/11/22 05:06:47;;;;;;;28.88;16.88;;;;;;;2.20;100.00;99336.59;4907342;29;20051;-79
2022/11/22 05:09:16;;;;;;;32.25;18.70;;;;;;;2.23;100.00;99338.34;4883498;29;20060;-79
2022/11/22 05:11:44;;;;;;;29.55;17.80;;;;;;;2.24;100.00;99335.75;4910710;29;20052;-80
2022/11/22 05:14:14;;;;;;;31.40;19.92;;;;;;;2.25;100.00;99332.31;4911499;29;20044;-79
2022/11/22 05:16:43;;;;;;;30.92;18.70;;;;;;;2.25;100.00;99332.31;4918730;29;20060;-79
2022/11/22 05:19:12;;;;;;;30.75;18.23;;;;;;;2.27;100.00;99330.63;4877150;29;20044;-79
2022/11/22 05:21:40;;;;;;;26.95;18.02;;;;;;;2.29;100.00;99328.91;4892437;29;20052;-80
2022/11/22 05:24:09;;;;;;;38.15;21.23;;;;;;;2.31;100.00;99327.19;4901450;29;20039;-79
2022/11/22 05:26:37;;;;;;;28.55;17.02;;;;;;;2.33;100.00;99335.00;4900566;29;20041;-79
2022/11/22 05:29:08;;;;;;;31.98;17.75;;;;;;;2.32;100.00;99334.13;4911519;29;20055;-78
2022/11/22 05:31:37;;;;;;;32.47;18.80;;;;;;;2.35;100.00;99335.91;4912570;29;20392;-79
2022/11/22 05:34:06;;;;;;;28.15;17.73;;;;;;;2.36;100.00;99331.56;4888138;29;20051;-78
2022/11/22 05:36:34;;;;;;;31.60;18.77;;;;;;;2.38;100.00;99332.47;4908664;29;20066;-79
2022/11/22 05:39:02;;;;;;;30.77;17.33;;;;;;;2.38;100.00;99329.84;4908123;29;20040;-78
2022/11/22 05:41:32;;;;;;;30.15;18.10;;;;;;;2.39;100.00;99327.28;4888390;29;20549;-78
2022/11/22 05:44:00;;;;;;;32.40;18.73;;;;;;;2.40;100.00;99322.94;4911480;29;20047;-79
2022/11/22 05:46:30;;;;;;;31.92;18.85;;;;;;;2.42;100.00;99337.72;4914707;29;20056;-79
2022/11/22 05:48:58;;;;;;;31.25;18.27;;;;;;;2.44;100.00;99333.41;4895054;29;20059;-79
2022/11/22 05:51:30;;;;;;;29.00;18.83;;;;;;;2.47;100.00;99337.78;4919964;29;20047;-80
2022/11/22 05:54:02;;;;;;;27.92;17.52;;;;;;;2.49;100.00;99338.66;4902130;29;20056;-81
2022/11/22 05:56:30;;;;;;;28.67;17.08;;;;;;;2.50;100.00;99343.88;4911390;29;21197;-78
2022/11/22 05:58:59;;;;;;;31.95;18.38;;;;;;;2.52;100.00;99342.16;4910998;29;20540;-79
2022/11/22 06:01:27;;;;;;;33.72;18.65;;;;;;;2.54;100.00;99334.38;4905096;29;20775;-80
2022/11/22 06:03:56;;;;;;;37.72;18.73;;;;;;;2.56;100.00;99337.00;4905069;29;20505;-79
2022/11/22 06:06:25;;;;;;;31.38;18.00;;;;;;;2.58;100.00;99333.56;4877923;29;20251;-79
2022/11/22 06:08:54;;;;;;;30.52;17.40;;;;;;;2.58;100.00;99336.16;4903152;29;20050;-79
2022/11/22 06:11:25;;;;;;;33.65;18.70;;;;;;;2.60;100.00;99344.00;4912669;29;20064;-79
2022/11/22 06:13:58;;;;;;;;;;;;;;;2.61;100.00;99349.22;4904376;29;20055;-79
2022/11/22 06:16:26;;;;;;;33.20;17.55;;;;;;;2.63;100.00;99336.22;4918423;29;19930;-79
2022/11/22 06:18:55;;;;;;;34.50;17.90;;;;;;;2.63;100.00;99329.28;4930054;29;20048;-79
2022/11/22 06:21:25;;;;;;;30.08;18.42;;;;;;;2.66;100.00;99331.91;4903676;29;20576;-80
2022/11/22 06:23:54;;;;;;;29.17;18.10;;;;;;;2.67;100.00;99343.22;4922401;29;20044;-80
2022/11/22 06:26:23;;;;;;;30.25;18.15;;;;;;;2.69;100.00;99347.56;4906440;29;20056;-79
2022/11/22 06:28:53;;;;;;;29.73;18.05;;;;;;;2.71;100.00;99348.44;4903094;29;20041;-79
2022/11/22 06:31:24;;;;;;;30.90;17.13;;;;;;;2.72;100.00;99341.50;4908085;29;20044;-79
2022/11/22 06:33:53;;;;;;;;;;;;;;;2.73;100.00;99346.72;4916080;29;20162;-79
2022/11/22 06:36:24;;;;;;;31.30;17.45;;;;;;;2.73;100.00;99349.34;4891177;29;19923;-79
2022/11/22 06:38:52;;;;;;;;;;;;;;;2.75;100.00;99338.94;4887978;29;20040;-79
2022/11/22 06:41:24;;;;;;;29.80;17.35;;;;;;;2.75;100.00;99338.09;4901761;29;19949;-78
2022/11/22 06:43:55;;;;;;;30.75;17.60;;;;;;;2.75;100.00;99346.75;4907456;29;20048;-78
2022/11/22 06:46:25;;;;;;;29.08;18.83;;;;;;;2.76;100.00;99338.09;4895724;29;20065;-78
2022/11/22 06:48:54;;;;;;;29.90;17.67;;;;;;;2.77;100.00;99341.56;4907475;29;20045;-79
2022/11/22 06:51:25;;;;;;;31.38;19.13;;;;;;;2.78;100.00;99339.00;4893163;29;20048;-78
2022/11/22 06:53:55;;;;;;;34.03;17.85;;;;;;;2.80;100.00;99349.38;4916959;29;20051;-80
2022/11/22 06:56:30;;;;;;;30.05;17.27;;;;;;;2.82;100.00;99347.72;4895929;29;20040;-81
2022/11/22 06:59:02;;;;;;;32.95;18.20;;;;;;;2.84;100.00;99343.38;4898124;29;20055;-79
2022/11/22 07:01:32;;;;;;;29.02;18.48;;;;;;;2.83;100.00;99352.91;4924768;29;20508;-79
2022/11/22 07:04:03;;;;;;;36.03;19.75;;;;;;;2.84;100.00;99349.47;4929642;29;20051;-79
2022/11/22 07:06:33;;;;;;;31.23;18.95;;;;;;;2.86;100.00;99352.06;4875750;29;20063;-78
2022/11/22 07:09:04;;;;;;;28.42;18.55;;;;;;;2.87;100.00;99357.31;4924441;29;20052;-81
2022/11/22 07:11:34;;;;;;;34.17;19.42;;;;;;;2.89;100.00;99359.91;4907317;29;20059;-81
2022/11/22 07:14:04;;;;;;;32.35;18.70;;;;;;;2.89;100.00;99362.50;4896962;29;22256;-81
2022/11/22 07:16:37;;;;;;;27.77;18.15;;;;;;;2.90;100.00;99351.25;4907345;29;20056;-78
2022/11/22 07:19:06;;;;;;;29.63;18.58;;;;;;;2.91;100.00;99350.38;4915560;29;20544;-79
2022/11/22 07:21:36;;;;;;;30.80;18.85;;;;;;;2.93;100.00;99369.50;4890310;29;20052;-81
2022/11/22 07:24:05;;;;;;;28.60;18.63;;;;;;;2.94;100.00;99371.22;4910982;29;20048;-78
2022/11/22 07:26:34;;;;;;;32.25;18.60;;;;;;;2.94;100.00;99366.03;4918333;29;20049;-79
2022/11/22 07:29:03;;;;;;;30.30;19.25;;;;;;;2.95;100.00;99367.78;4901366;29;20111;-80
2022/11/22 07:31:31;;;;;;;31.42;19.55;;;;;;;2.96;100.00;99369.50;4904031;29;20047;-80
2022/11/22 07:34:00;;;;;;;31.08;19.23;;;;;;;2.97;100.00;99370.38;4896212;29;20077;-80
2022/11/22 07:36:29;;;;;;;31.42;18.55;;;;;;;2.98;100.00;99375.59;4906788;29;20059;-80
2022/11/22 07:38:57;;;;;;;29.52;18.67;;;;;;;3.00;100.00;99380.84;4885298;29;20051;-81
2022/11/22 07:41:25;;;;;;;32.90;18.50;;;;;;;3.01;100.00;99383.47;4900571;29;20040;-80
2022/11/22 07:43:54;;;;;;;27.77;16.88;;;;;;;3.03;100.00;99373.94;4901483;29;20054;-79
2022/11/22 07:46:28;;;;;;;34.78;19.25;;;;;;;3.06;100.00;99384.38;4903441;29;20044;-80
2022/11/22 07:48:57;;;;;;;34.08;18.83;;;;;;;3.08;100.00;99382.66;4914589;29;20055;-80
2022/11/22 07:51:26;;;;;;;31.83;18.50;;;;;;;3.08;100.00;99385.28;4930756;29;20051;-81
2022/11/22 07:53:55;;;;;;;29.85;18.95;;;;;;;3.08;100.00;99381.78;4879438;29;20059;-79
2022/11/22 07:56:24;;;;;;;29.70;18.75;;;;;;;3.09;100.00;99386.13;4907185;29;20051;-79
2022/11/22 07:58:53;;;;;;;30.15;19.05;;;;;;;3.10;100.00;99393.97;4903686;29;20405;-79
2022/11/22 08:01:24;;;;;;;30.77;18.52;;;;;;;3.12;100.00;99396.59;4918272;29;20048;-79
2022/11/22 08:03:53;;;;;;;29.98;18.25;;;;;;;3.15;100.00;99403.53;4895955;29;20045;-80
2022/11/22 08:06:21;;;;;;;34.25;18.95;;;;;;;3.16;100.00;99403.56;4915437;29;20596;-79
2022/11/22 08:08:50;;;;;;;30.55;18.38;;;;;;;3.17;100.00;99404.44;4898153;29;20032;-79
2022/11/22 08:11:24;;;;;;;31.10;18.83;;;;;;;3.19;100.00;99407.91;4926745;29;20045;-80
2022/11/22 08:13:52;;;;;;;27.88;18.95;;;;;;;3.19;100.00;99407.91;4884268;29;20040;-80
2022/11/22 08:16:21;;;;;;;32.17;18.60;;;;;;;3.23;100.00;99409.69;4885998;29;20051;-78
2022/11/22 08:18:49;;;;;;;32.70;19.17;;;;;;;3.26;100.00;99415.81;4907647;29;20048;-79
2022/11/22 08:21:18;;;;;;;32.60;18.80;;;;;;;3.28;100.00;99408.00;4929978;29;20047;-78
2022/11/22 08:23:47;;;;;;;32.10;19.13;;;;;;;3.31;100.00;99408.06;4876322;29;20056;-80
2022/11/22 08:26:17;;;;;;;28.53;18.43;;;;;;;3.34;100.00;99413.25;4930305;29;20055;-80
2022/11/22 08:28:45;;;;;;;32.38;17.95;;;;;;;3.37;100.00;99417.66;4897143;29;20052;-78
2022/11/22 08:31:18;;;;;;;28.88;17.80;;;;;;;3.40;100.00;99417.66;4909925;29;20052;-80
2022/11/22 08:33:47;;;;;;;31.52;17.63;;;;;;;3.42;100.00;99421.16;4902245;29;20052;-78
2022/11/22 08:36:16;;;;;;;28.63;17.60;;;;;;;3.44;100.00;99404.69;4928672;29;20409;-79
2022/11/22 08:38:44;;;;;;;32.42;17.42;;;;;;;3.47;100.00;99407.31;4881112;29;20059;-79
2022/11/22 08:41:13;;;;;;;33.55;18.23;;;;;;;3.50;100.00;99403.88;4930472;29;20044;-80
2022/11/22 08:43:41;;;;;;;31.05;18.52;;;;;;;3.53;100.00;99403.03;4918202;29;20043;-78
2022/11/22 08:46:09;;;;;;;35.80;21.00;;;;;;;3.56;100.00;99405.66;4885035;29;20048;-79
2022/11/22 08:48:38;;;;;;;26.92;17.92;;;;;;;3.59;100.00;99403.97;4904606;29;20044;-79
2022/11/22 08:51:08;;;;;;;27.45;17.40;;;;;;;3.62;100.00;99403.97;4914984;29;20533;-79
2022/11/22 08:53:39;;;;;;;27.42;16.48;;;;;;;3.67;100.00;99396.22;4856670;29;20089;-79
2022/11/22 08:56:11;;;;;;;27.40;16.95;;;;;;;3.73;100.00;99396.25;4929111;29;20051;-79
2022/11/22 08:58:40;;;;;;;26.98;15.23;;;;;;;3.78;100.00;99399.78;4891710;29;20040;-78
2022/11/22 09:01:12;;;;;;;35.17;16.10;;;;;;;3.85;100.00;99411.94;4900634;29;20044;-79
2022/11/22 09:03:42;;;;;;;31.45;15.80;;;;;;;3.90;100.00;99412.00;4891839;29;20052;-78
2022/11/22 09:06:13;;;;;;;32.60;15.70;;;;;;;3.96;100.00;99413.78;4879397;29;20053;-78
2022/11/22 09:09:01;;;;;;;32.17;14.93;;;;;;;4.01;100.00;99431.19;4881969;29;20071;-79
2022/11/22 09:11:50;;;;;;;29.27;14.63;;;;;;;4.08;100.00;99424.28;4907889;29;20059;-79
2022/11/22 09:14:18;;;;;;;32.08;14.93;;;;;;;4.11;100.00;99421.69;4913424;29;20047;-81
2022/11/22 09:16:47;;;;;;;23.75;14.25;;;;;;;4.16;100.00;99422.59;4904964;29;20061;-81
2022/11/22 09:19:15;;;;;;;22.48;13.52;;;;;;;4.21;100.00;99427.84;4912600;29;20044;-80
2022/11/22 09:21:44;;;;;;;25.23;13.75;;;;;;;4.26;100.00;99434.81;4885098;29;20878;-79
2022/11/22 09:24:12;;;;;;;25.67;14.07;;;;;;;4.30;100.00;99428.75;4906790;29;20047;-79
2022/11/22 09:26:41;;;;;;;27.80;13.38;;;;;;;4.35;100.00;99427.91;4873607;29;20039;-80
2022/11/22 09:29:09;;;;;;;18.48;12.23;;;;;;;4.40;100.00;99429.69;4914630;29;20055;-80
2022/11/22 09:31:38;;;;;;;21.42;11.90;;;;;;;4.43;100.00;99428.84;4902918;29;20048;-79
2022/11/22 09:34:06;;;;;;;18.15;12.07;;;;;;;4.48;100.00;99420.19;4895623;29;20048;-81
2022/11/22 09:36:35;;;;;;;19.08;11.48;;;;;;;4.55;100.00;99433.25;4896184;29;20051;-80
2022/11/22 09:39:03;;;;;;;26.83;11.30;;;;;;;4.60;100.00;99439.38;4905111;29;20056;-81
2022/11/22 09:41:59;;;;;;;17.50;10.13;;;;;;;4.64;100.00;99431.53;4888833;29;20029;-80
2022/11/22 09:44:43;;;;;;;21.55;9.60;;;;;;;4.67;100.00;99438.53;4892612;29;20055;-79
2022/11/22 09:47:40;;;;;;;23.45;7.82;;;;;;;4.72;100.00;99438.53;4901759;29;20037;-80
2022/11/22 09:50:22;;;;;;;13.35;5.72;;;;;;;4.74;100.00;99436.81;4886112;29;20055;-79
2022/11/22 09:53:17;;;;;;;9.73;5.55;;;;;;;4.75;100.00;99436.81;4881317;29;20688;-79
2022/11/22 09:55:48;;;;;;;14.18;5.00;;;;;;;4.80;100.00;99447.25;4901588;29;20057;-80
2022/11/22 09:58:30;;;;;;;19.42;5.47;;;;;;;4.83;100.00;99435.09;4863567;29;20055;-80
2022/11/22 10:01:31;;;;;;;16.67;4.32;;;;;;;4.90;100.00;99433.41;4890088;29;20041;-79
2022/11/22 10:04:05;;;;;;;14.13;4.68;;;;;;;4.94;100.00;99448.19;4894535;29;20083;-80
2022/11/22 10:06:44;;;;;;;14.82;4.57;;;;;;;4.98;100.00;99457.78;4874238;29;20418;-79
2022/11/22 10:09:38;;;;;;;10.40;4.00;;;;;;;5.05;100.00;99450.84;4896371;29;20037;-79
2022/11/22 10:12:35;;;;;;;8.75;4.32;;;;;;;5.10;100.00;99456.09;4899255;29;20061;-79
2022/11/22 10:15:11;;;;;;;12.25;4.00;;;;;;;5.13;100.00;99453.50;4885955;29;20390;-79
2022/11/22 10:18:08;;;;;;;12.82;3.13;;;;;;;5.16;100.00;99461.31;4889656;29;20063;-78
2022/11/22 10:20:40;;;;;;;11.88;3.72;;;;;;;5.18;100.00;99470.03;4867796;29;20514;-78
2022/11/22 10:23:22;;;;;;;13.90;3.10;;;;;;;5.19;100.00;99467.41;4889383;29;20049;-80
2022/11/22 10:25:59;;;;;;;14.75;3.20;;;;;;;5.17;100.00;99470.91;4902988;29;20052;-80
2022/11/22 10:29:03;;;;;;;18.50;3.42;;;;;;;5.18;100.00;99481.38;4874236;29;20405;-82
2022/11/22 10:31:57;;;;;;;16.60;3.60;;;;;;;5.18;100.00;99476.13;4895209;29;20049;-81
2022/11/22 10:34:46;;;;;;;13.77;3.55;;;;;;;5.19;100.00;99471.78;4898345;29;20053;-81
2022/11/22 10:37:26;;;;;;;10.00;3.30;;;;;;;5.18;100.00;99486.59;4879513;29;20072;-81
2022/11/22 10:40:13;;;;;;;11.55;3.58;;;;;;;5.20;100.00;99481.38;4891809;29;20044;-82
2022/11/22 10:43:36;;;;;;;8.10;3.13;;;;;;;5.21;100.00;99485.72;4878116;29;20052;-82
2022/11/22 10:46:11;;;;;;;10.80;2.58;;;;;;;5.22;100.00;99484.88;4893537;29;20901;-80
2022/11/22 10:48:59;;;;;;;8.57;3.22;;;;;;;5.24;100.00;99480.50;4880390;29;20044;-81
2022/11/22 10:51:50;;;;;;;10.40;2.40;;;;;;;5.24;100.00;99480.50;4872603;29;20060;-82
2022/11/22 10:54:44;;;;;;;9.52;2.42;;;;;;;5.25;100.00;99477.91;4876683;29;20045;-82
2022/11/22 10:57:31;;;;;;;8.30;2.70;;;;;;;5.28;100.00;99492.72;4894342;29;20052;-80
2022/11/22 11:00:19;;;;;;;6.32;2.35;;;;;;;5.31;100.00;99481.38;4873982;29;20044;-80
2022/11/22 11:03:00;;;;;;;6.97;2.65;;;;;;;5.34;100.00;99479.66;4899016;29;20049;-80
2022/11/22 11:05:41;;;;;;;11.95;2.53;;;;;;;5.36;100.00;99479.66;4897782;29;20083;-80
2022/11/22 11:08:41;;;;;;;7.55;2.47;;;;;;;5.36;100.00;99470.06;4899318;29;20071;-81
2022/11/22 11:11:30;;;;;;;12.83;2.40;;;;;;;5.40;100.00;99470.97;4897746;29;20055;-82
2022/11/22 11:14:05;;;;;;;7.45;1.90;;;;;;;5.41;100.00;99470.09;4895275;29;20051;-80
2022/11/22 11:16:37;;;;;;;8.18;2.80;;;;;;;5.44;100.00;99473.59;4876908;29;20041;-80
2022/11/22 11:19:27;;;;;;;7.97;2.30;;;;;;;5.48;100.00;99461.38;4894153;29;20044;-80
2022/11/22 11:22:13;;;;;;;9.13;2.00;;;;;;;5.54;100.00;99470.97;4887668;29;20040;-79
2022/11/22 11:24:41;;;;;;;7.57;2.08;;;;;;;5.58;100.00;99475.38;4886849;29;20048;-80
2022/11/22 11:27:11;;;;;;;7.00;2.17;;;;;;;5.62;100.00;99474.50;4888962;29;20052;-79
2022/11/22 11:30:00;;;;;;;9.95;1.98;;;;;;;5.67;100.00;99475.34;4894413;29;20045;-81
2022/11/22 11:32:28;;;;;;;7.13;1.95;;;;;;;5.74;100.00;99482.34;4865251;29;20052;-80
2022/11/22 11:35:00;;;;;;;3.40;1.75;;;;;;;5.88;100.00;99457.94;4894455;29;20056;-80
2022/11/22 11:37:37;;;;;;;9.35;2.33;;;;;;;6.02;100.00;99462.31;4887985;29;20044;-80
2022/11/22 11:40:27;;;;;;;7.90;2.28;;;;;;;6.14;100.00;99453.59;4877079;29;20131;-81
2022/11/22 11:43:14;;;;;;;6.20;1.83;;;;;;;6.24;100.00;99454.47;4877417;29;20041;-80
2022/11/22 11:45:43;;;;;;;4.82;1.60;;;;;;;6.30;100.00;99448.38;4889942;29;20041;-80
2022/11/22 11:48:20;;;;;;;6.85;2.25;;;;;;;6.35;100.00;99446.59;4857336;29;20063;-81
2022/11/22 11:50:49;;;;;;;7.35;1.90;;;;;;;6.39;100.00;99440.47;4898083;29;20047;-80
2022/11/22 11:53:24;;;;;;;6.07;1.67;;;;;;;6.43;100.00;99439.59;4899312;29;20433;-80
2022/11/22 11:55:53;;;;;;;9.30;2.05;;;;;;;6.47;100.00;99443.94;4870979;29;20056;-80
2022/11/22 11:58:23;;;;;;;4.30;1.60;;;;;;;6.44;100.00;99439.59;4883406;29;20052;-80